Fort Franklin, Canada
Current Conditions -  °F | °C
As of 3:00 PM on Wednesday 22 Oct 2014 (Local Time) from CYVQ Reporting Station
Overcast Overcast  
Wind Chill: 23°   Ceiling: 1000
Heat Index: 23°   Visibility: 15mi
Dew Point: 21°   Wind: 3mph
Humidity: 93%   Direction: 60°ENE
Pressure: 29.83"   Gusts: NA
Location:  65.19°N, 123.42°W
Report Text: CYVQ 222100Z 06003KT 030V110 15SM FEW005 BKN010 OVC037 M05/M06 A2983 RMK ST1SC6SC1 SLP106
Loading
Personal Weather Stations






























Interactive Weather Map
Tropical Storm Tracking
New forecast layout! Learn more

10-Day Weather Forecast

Advertisements
Track Severe Weather on mobile